»·PEaware :: SWA782 KLAS-KBUR

SWA782 :: KLAS-KBUR

FLIGHT INFORMATION

Flight Status: Arrived
Operator:
Southwest Airlines
More flights by this operator :: More flights under this callsign
Pilot: Daniel W. (24238)
Aircraft: BOEING 737-700
(B737)
More flights by this aircraft type
Origin: KLAS McCarran Intl
United States
Destination: KBUR Bob Hope-Burbank
United States
More flights between these airports :: More routes between these airports
Route: BOACH8 WHIGG KREME JANNY5
File this flight plan on PilotEdge
Remarks: PBN / A1D1O1S2T1 NAV / RNVD1E1A1 RNP10 DOF / 190717 REG / N711HK CODE / A9807D PER / C
Altitude:
(Current/Filed)
22,000ft
Speed:
(Current/Filed)
367kts
Departed: 17-Jul-19 03:26 PM
Arrived: 17-Jul-19 04:08 PM
Distance/Time
Traveled:
193nm/0:42
Distance/Time
To Go:
Arrived

Flight Plot

Page will automatically refresh every two minutes.

Flight plan parsing failed; only flown route is shown


Map Options




Map Legend


Flown Route
Filed Route
Departure Airport
Arrival Airport
Navaid (VOR, NDB)
Fix

Horizontal Profiles

Position Reports

Time Latitude Longitude Heading Altitude Ground
Speed
17-Jul-19 14:50 36.080279 -115.147242 0 2189ft 0kts
17-Jul-19 14:51 36.080279 -115.147242 58 2189ft 0kts
17-Jul-19 14:52 36.080279 -115.147242 58 2189ft 0kts
17-Jul-19 14:53 36.080279 -115.147242 58 2189ft 0kts
17-Jul-19 14:54 36.080279 -115.147242 58 2189ft 0kts
17-Jul-19 14:55 36.080279 -115.147242 58 2189ft 0kts
17-Jul-19 14:56 36.080279 -115.147242 58 2189ft 0kts
17-Jul-19 14:57 36.080279 -115.147242 58 2189ft 0kts
17-Jul-19 14:58 36.080279 -115.147242 58 2189ft 0kts
17-Jul-19 14:59 36.080279 -115.147242 58 2189ft 0kts
17-Jul-19 15:00 36.080279 -115.147242 58 2189ft 0kts
17-Jul-19 15:00 36.080279 -115.147242 58 2189ft 0kts
17-Jul-19 15:02 36.080279 -115.147242 58 2189ft 0kts
17-Jul-19 15:02 36.080279 -115.147242 58 2189ft 0kts
17-Jul-19 15:03 36.080279 -115.147242 58 2189ft 0kts
17-Jul-19 15:04 36.080279 -115.147242 58 2189ft 0kts
17-Jul-19 15:06 36.080279 -115.147242 58 2189ft 0kts
17-Jul-19 15:06 36.080279 -115.147242 58 2189ft 0kts
17-Jul-19 15:07 36.080279 -115.147242 58 2189ft 0kts
17-Jul-19 15:08 36.080279 -115.147242 58 2189ft 0kts
17-Jul-19 15:09 36.080279 -115.147242 58 2189ft 0kts
17-Jul-19 15:10 36.080279 -115.147242 58 2189ft 0kts
17-Jul-19 15:11 36.080279 -115.147242 58 2189ft 0kts
17-Jul-19 15:12 36.080279 -115.147242 58 2189ft 0kts
17-Jul-19 15:13 36.080279 -115.147242 58 2189ft 0kts
17-Jul-19 15:14 36.080236 -115.147326 58 2189ft 2kts
17-Jul-19 15:15 36.080206 -115.147997 140 2189ft 2kts
17-Jul-19 15:16 36.080295 -115.148074 155 2189ft 0kts
17-Jul-19 15:17 36.080295 -115.148074 155 2189ft 0kts
17-Jul-19 15:18 36.080295 -115.148074 155 2189ft 0kts
17-Jul-19 15:19 36.079155 -115.147425 155 2189ft 2kts
17-Jul-19 15:20 36.078844 -115.147248 154 2189ft 15kts
17-Jul-19 15:21 36.078275 -115.139730 89 2189ft 29kts
17-Jul-19 15:22 36.078270 -115.130323 90 2189ft 30kts
17-Jul-19 15:23 36.078012 -115.122269 128 2189ft 13kts
17-Jul-19 15:24 36.076488 -115.121270 217 2189ft 7kts
17-Jul-19 15:25 36.076418 -115.145314 269 2348ft 160kts
17-Jul-19 15:26 36.075908 -115.211696 268 4213ft 226kts
17-Jul-19 15:27 36.039465 -115.276850 199 6530ft 274kts
17-Jul-19 15:28 35.966289 -115.305348 189 7202ft 271kts
17-Jul-19 15:29 35.889104 -115.311615 185 11144ft 284kts
17-Jul-19 15:30 35.800806 -115.309232 176 13602ft 346kts
17-Jul-19 15:31 35.701853 -115.300383 191 16620ft 366kts
17-Jul-19 15:32 35.619408 -115.373770 228 19438ft 382kts
17-Jul-19 15:33 35.545879 -115.472744 228 21798ft 403kts
17-Jul-19 15:34 35.467896 -115.572779 224 21952ft 405kts
17-Jul-19 15:35 35.386407 -115.668236 224 21954ft 404kts
17-Jul-19 15:36 35.305221 -115.763863 224 21966ft 405kts
17-Jul-19 15:37 35.224383 -115.859420 225 21976ft 404kts
17-Jul-19 15:38 35.143276 -115.955237 225 21971ft 404kts
17-Jul-19 15:39 35.062206 -116.050683 224 21972ft 406kts
17-Jul-19 15:40 34.980712 -116.145973 224 21971ft 406kts
17-Jul-19 15:41 34.907503 -116.249721 241 21985ft 405kts
17-Jul-19 15:42 34.858829 -116.373421 245 21978ft 405kts
17-Jul-19 15:43 34.810554 -116.497372 244 22002ft 406kts
17-Jul-19 15:44 34.780104 -116.627867 263 21985ft 397kts
17-Jul-19 15:45 34.767717 -116.760622 263 21964ft 394kts
17-Jul-19 15:46 34.754677 -116.892480 262 21163ft 389kts
17-Jul-19 15:47 34.741650 -117.020315 262 19837ft 378kts
17-Jul-19 15:48 34.728947 -117.147203 262 18983ft 375kts
17-Jul-19 15:49 34.716062 -117.272291 261 18132ft 369kts
17-Jul-19 15:50 34.703084 -117.395435 261 17247ft 365kts
17-Jul-19 15:51 34.690242 -117.517203 261 16397ft 361kts
17-Jul-19 15:52 34.677420 -117.637559 261 15553ft 357kts
17-Jul-19 15:53 34.664860 -117.756206 261 14718ft 353kts
17-Jul-19 15:54 34.652240 -117.873619 261 13832ft 348kts
17-Jul-19 15:55 34.639606 -117.989542 260 12472ft 342kts
17-Jul-19 15:56 34.625021 -118.097487 254 11179ft 306kts
17-Jul-19 15:57 34.603235 -118.192192 253 10014ft 281kts
17-Jul-19 15:58 34.582619 -118.283304 254 8898ft 279kts
17-Jul-19 15:59 34.562352 -118.373545 254 8027ft 273kts
17-Jul-19 16:00 34.525520 -118.451253 216 7766ft 278kts
17-Jul-19 16:01 34.456735 -118.484751 167 6743ft 270kts
17-Jul-19 16:02 34.392575 -118.460288 162 5929ft 223kts
17-Jul-19 16:03 34.336806 -118.430743 145 4458ft 228kts
17-Jul-19 16:04 34.291501 -118.386077 148 3296ft 180kts
17-Jul-19 16:05 34.247602 -118.370115 167 1921ft 142kts
17-Jul-19 16:06 34.211105 -118.360125 168 769ft 125kts
17-Jul-19 16:07 34.198508 -118.355320 164 729ft 8kts
17-Jul-19 16:08 34.197184 -118.352616 88 729ft 4kts
17-Jul-19 16:09 34.196788 -118.352418 181 729ft 0kts
17-Jul-19 16:10 34.196788 -118.352418 181 729ft 0kts
17-Jul-19 16:11 34.196788 -118.352418 181 729ft 0kts

Navigation Log

Ident Type
Flight plan parsing failed, navigation log unavailable